Time;durP1;ratioP1;P1;durP2;ratioP2;P2;SDS_P1;SDS_P2;PMS_P1;PMS_P2;Temp;Humidity;BMP_temperature;BMP_pressure;BME280_temperature;BME280_humidity;BME280_pressure;Samples;Min_cycle;Max_cycle;Signal;HPM_P1;HPM_P2
2021/10/17 00:00:36;;;;;;;3.03;1.40;;;9.20;99.90;;;;;;5014883;28;20175;-84
2021/10/17 00:03:02;;;;;;;3.93;1.13;;;9.10;99.90;;;;;;5014743;28;20424;-83
2021/10/17 00:05:31;;;;;;;3.50;0.63;;;9.20;99.90;;;;;;5014715;28;20414;-84
2021/10/17 00:07:57;;;;;;;4.93;1.07;;;9.20;99.90;;;;;;5014367;28;20625;-84
2021/10/17 00:10:29;;;;;;;3.63;0.80;;;9.20;99.90;;;;;;5014684;28;20439;-83
2021/10/17 00:12:56;;;;;;;4.33;1.27;;;9.20;99.90;;;;;;4996768;28;20427;-84
2021/10/17 00:15:24;;;;;;;4.40;1.23;;;9.20;99.90;;;;;;5014491;28;20417;-84
2021/10/17 00:17:51;;;;;;;4.83;1.07;;;9.30;99.90;;;;;;5014333;28;20838;-84
2021/10/17 00:20:19;;;;;;;3.57;0.83;;;8.90;99.90;;;;;;4996776;28;20445;-84
2021/10/17 00:22:46;;;;;;;3.37;1.10;;;9.10;99.90;;;;;;4996244;28;20472;-84
2021/10/17 00:25:12;;;;;;;2.40;0.70;;;9.20;99.90;;;;;;5014305;28;20420;-84
2021/10/17 00:27:41;;;;;;;6.30;1.63;;;9.20;99.90;;;;;;5014217;28;20413;-83
2021/10/17 00:30:08;;;;;;;3.50;1.70;;;9.30;99.90;;;;;;5014428;28;20432;-84
2021/10/17 00:32:34;;;;;;;4.00;1.33;;;9.20;99.90;;;;;;5014239;28;20413;-83
2021/10/17 00:35:01;;;;;;;1.43;0.70;;;9.10;99.90;;;;;;5014087;28;20502;-83
2021/10/17 00:37:28;;;;;;;2.10;0.20;;;9.20;99.90;;;;;;5013738;28;20835;-84
2021/10/17 00:39:54;;;;;;;4.20;1.03;;;9.20;99.90;;;;;;5014049;28;20417;-84
2021/10/17 00:42:20;;;;;;;5.20;1.37;;;9.30;99.90;;;;;;5013983;28;20420;-84
2021/10/17 00:44:57;;;;;;;1.23;0.60;;;9.20;99.90;;;;;;5014016;28;20526;-84
2021/10/17 00:47:23;;;;;;;3.17;1.17;;;9.20;99.90;;;;;;5013905;28;20417;-84
2021/10/17 00:49:49;;;;;;;2.43;0.47;;;9.20;99.90;;;;;;5013815;28;20415;-84
2021/10/17 00:52:15;;;;;;;3.53;0.60;;;9.20;99.90;;;;;;5013446;28;20522;-84
2021/10/17 00:54:45;;;;;;;2.60;0.80;;;9.20;99.90;;;;;;5005732;28;20174;-84
2021/10/17 00:57:11;;;;;;;3.47;1.07;;;9.20;99.90;;;;;;5013619;28;20825;-84
2021/10/17 00:59:37;;;;;;;3.50;0.73;;;9.20;99.90;;;;;;5013582;28;20417;-84
2021/10/17 01:02:06;;;;;;;4.87;1.00;;;9.30;99.90;;;;;;5013522;28;20477;-84
2021/10/17 01:04:33;;;;;;;4.40;1.37;;;9.20;99.90;;;;;;5013564;28;20416;-84
2021/10/17 01:07:01;;;;;;;3.03;1.40;;;9.20;99.90;;;;;;5013244;28;20419;-84
2021/10/17 01:09:27;;;;;;;6.50;1.37;;;9.20;99.90;;;;;;5013625;28;20417;-85
2021/10/17 01:11:52;;;;;;;3.90;0.83;;;9.10;99.90;;;;;;4995839;28;20933;-85
2021/10/17 01:14:20;;;;;;;5.30;0.87;;;9.20;99.90;;;;;;4995847;28;20227;-84
2021/10/17 01:16:47;;;;;;;5.50;0.90;;;9.20;99.90;;;;;;5013130;28;20219;-84
2021/10/17 01:19:13;;;;;;;6.23;1.10;;;9.20;99.90;;;;;;4995831;28;20448;-84
2021/10/17 01:21:39;;;;;;;2.17;0.80;;;9.20;99.90;;;;;;5012961;28;20874;-85
2021/10/17 01:24:06;;;;;;;2.70;0.93;;;9.20;99.90;;;;;;4995249;28;20424;-84
2021/10/17 01:26:32;;;;;;;4.20;1.20;;;9.20;99.90;;;;;;5013290;28;20422;-84
2021/10/17 01:28:59;;;;;;;3.27;0.80;;;9.50;99.90;;;;;;5013328;28;20416;-84
2021/10/17 01:31:46;;;;;;;8.07;0.97;;;9.10;99.90;;;;;;5013233;28;20780;-83
2021/10/17 01:34:14;;;;;;;2.33;0.60;;;9.10;99.90;;;;;;5013248;28;20413;-84
2021/10/17 01:36:41;;;;;;;6.10;2.27;;;9.10;99.90;;;;;;4995309;28;20559;-83
2021/10/17 01:39:10;;;;;;;4.10;0.70;;;9.10;99.90;;;;;;5013220;28;20405;-84
2021/10/17 01:41:35;;;;;;;2.63;0.73;;;9.10;99.90;;;;;;5013199;28;20784;-84
2021/10/17 01:44:09;;;;;;;5.20;1.13;;;;;;;;;;5013192;28;20412;-84
2021/10/17 01:46:35;;;;;;;4.30;1.17;;;9.10;99.90;;;;;;5013141;28;20181;-84
2021/10/17 01:49:05;;;;;;;6.37;1.60;;;9.10;99.90;;;;;;5013193;28;20877;-84
2021/10/17 01:51:34;;;;;;;3.93;1.20;;;9.10;99.90;;;;;;5012761;28;20416;-84
2021/10/17 01:54:04;;;;;;;2.40;0.60;;;9.20;99.90;;;;;;5013118;28;20423;-84
2021/10/17 01:56:30;;;;;;;5.30;1.37;;;9.20;99.90;;;;;;5012999;28;20482;-84
2021/10/17 01:58:56;;;;;;;4.20;1.43;;;9.20;99.90;;;;;;5013058;28;20418;-84
2021/10/17 02:01:23;;;;;;;3.60;1.00;;;9.20;99.90;;;;;;5013024;28;20419;-83
2021/10/17 02:03:49;;;;;;;4.30;1.07;;;9.20;99.90;;;;;;5012948;28;20635;-83
2021/10/17 02:06:14;;;;;;;4.30;1.60;;;9.10;99.90;;;;;;5012541;28;20517;-85
2021/10/17 02:08:40;;;;;;;4.57;1.60;;;9.00;99.90;;;;;;4995312;28;20191;-83
2021/10/17 02:11:08;;;;;;;4.90;1.57;;;9.00;99.90;;;;;;5012889;28;20210;-84
2021/10/17 02:13:33;;;;;;;2.10;1.17;;;9.00;99.90;;;;;;5012683;28;20179;-83
2021/10/17 02:15:59;;;;;;;5.63;1.40;;;9.00;99.90;;;;;;5012699;28;20562;-84
2021/10/17 02:18:25;;;;;;;3.17;1.37;;;8.90;99.90;;;;;;4995268;28;20187;-84
2021/10/17 02:20:53;;;;;;;4.53;1.00;;;8.90;99.90;;;;;;4994903;28;20273;-84
2021/10/17 02:23:19;;;;;;;3.67;1.73;;;8.90;99.90;;;;;;4992984;28;20197;-84
2021/10/17 02:25:44;;;;;;;3.63;1.43;;;9.00;99.90;;;;;;4975821;28;20425;-84
2021/10/17 02:28:10;;;;;;;6.70;1.40;;;9.00;99.90;;;;;;4993275;28;20270;-85
2021/10/17 02:30:36;;;;;;;3.00;1.80;;;;;;;;;;4993217;28;20184;-84
2021/10/17 02:33:02;;;;;;;3.83;1.33;;;8.90;99.90;;;;;;4993156;28;20178;-84
2021/10/17 02:35:27;;;;;;;5.00;1.40;;;8.90;99.90;;;;;;4995003;28;20474;-84
2021/10/17 02:37:53;;;;;;;10.03;1.87;;;8.90;99.90;;;;;;4996320;28;20213;-84
2021/10/17 02:40:19;;;;;;;1.97;0.83;;;;;;;;;;4996740;28;20174;-84
2021/10/17 02:42:44;;;;;;;6.23;1.40;;;9.00;99.90;;;;;;4996720;28;20174;-84
2021/10/17 02:45:10;;;;;;;3.07;1.10;;;8.90;99.90;;;;;;4996730;28;20426;-84
2021/10/17 02:47:35;;;;;;;5.30;1.70;;;8.90;99.90;;;;;;4996557;28;20172;-84
2021/10/17 02:50:01;;;;;;;4.57;1.87;;;9.00;99.90;;;;;;4996482;28;20183;-83
2021/10/17 02:52:27;;;;;;;3.33;1.60;;;8.90;99.90;;;;;;4996199;28;20202;-84
2021/10/17 02:54:52;;;;;;;7.73;2.00;;;9.00;99.90;;;;;;4996427;28;20267;-84
2021/10/17 02:57:18;;;;;;;4.90;1.07;;;9.00;99.90;;;;;;4978912;28;20228;-84
2021/10/17 02:59:44;;;;;;;4.03;1.47;;;9.10;99.90;;;;;;4996374;28;20179;-84
2021/10/17 03:02:12;;;;;;;5.47;1.10;;;9.00;99.90;;;;;;4978742;28;20244;-84
2021/10/17 03:04:38;;;;;;;4.60;1.90;;;9.10;99.90;;;;;;4995141;28;20170;-84
2021/10/17 03:07:03;;;;;;;10.13;1.67;;;9.10;99.90;;;;;;4995343;28;20477;-83
2021/10/17 03:09:32;;;;;;;4.50;1.37;;;9.10;99.90;;;;;;4977202;28;20181;-83
2021/10/17 03:11:57;;;;;;;8.17;1.97;;;9.10;99.90;;;;;;4995067;28;20607;-83
2021/10/17 03:14:23;;;;;;;6.60;2.33;;;9.00;99.90;;;;;;4995171;28;20418;-83
2021/10/17 03:16:51;;;;;;;4.50;1.83;;;9.10;99.90;;;;;;4995706;28;20309;-83
2021/10/17 03:19:19;;;;;;;5.53;1.83;;;9.10;99.90;;;;;;4995588;28;20240;-83
2021/10/17 03:21:48;;;;;;;6.60;1.57;;;9.10;99.90;;;;;;4994219;28;20472;-83
2021/10/17 03:24:14;;;;;;;5.70;3.20;;;9.00;99.90;;;;;;4996065;28;20429;-83
2021/10/17 03:26:39;;;;;;;5.67;2.23;;;9.00;99.90;;;;;;4995885;28;20824;-84
2021/10/17 03:29:05;;;;;;;3.10;1.63;;;9.00;99.90;;;;;;4995876;28;20177;-83
2021/10/17 03:31:33;;;;;;;7.37;2.43;;;9.00;99.90;;;;;;4978441;28;20237;-83
2021/10/17 03:33:59;;;;;;;6.83;2.80;;;9.10;99.90;;;;;;4995757;28;20264;-83
2021/10/17 03:36:25;;;;;;;9.57;2.33;;;9.80;99.90;;;;;;4995295;28;20474;-83
2021/10/17 03:38:51;;;;;;;6.17;1.93;;;9.00;99.90;;;;;;4995604;28;20436;-83
2021/10/17 03:41:16;;;;;;;4.90;2.00;;;9.10;99.90;;;;;;4995574;28;20181;-83
2021/10/17 03:43:42;;;;;;;10.23;3.00;;;9.10;99.90;;;;;;4978127;28;20180;-83
2021/10/17 03:46:07;;;;;;;9.27;2.63;;;9.00;99.90;;;;;;4977615;28;20305;-83
2021/10/17 03:48:37;;;;;;;4.67;2.30;;;9.00;99.90;;;;;;4995340;28;20176;-83
2021/10/17 03:51:08;;;;;;;8.83;2.20;;;9.00;99.90;;;;;;4994976;28;20232;-83
2021/10/17 03:53:34;;;;;;;5.87;2.43;;;8.90;99.90;;;;;;4995433;28;20421;-84
2021/10/17 03:55:59;;;;;;;5.40;1.70;;;8.70;99.90;;;;;;4995208;28;20972;-84
2021/10/17 03:58:25;;;;;;;7.30;3.30;;;9.20;99.90;;;;;;4977837;28;20437;-84
2021/10/17 04:00:51;;;;;;;7.43;3.70;;;9.00;99.90;;;;;;4977798;28;20260;-84
2021/10/17 04:03:16;;;;;;;6.80;2.03;;;9.00;99.90;;;;;;4995197;28;20182;-84
2021/10/17 04:05:42;;;;;;;7.90;2.00;;;9.00;99.90;;;;;;4995131;28;20179;-84
2021/10/17 04:08:08;;;;;;;6.60;3.00;;;9.00;99.90;;;;;;4994780;28;20631;-84
2021/10/17 04:10:34;;;;;;;5.33;1.60;;;9.00;99.90;;;;;;4995032;28;20631;-84
2021/10/17 04:13:00;;;;;;;4.60;2.23;;;8.80;99.90;;;;;;4994921;28;20932;-84
2021/10/17 04:15:25;;;;;;;5.23;2.30;;;8.80;99.90;;;;;;4994948;28;20426;-84
2021/10/17 04:17:51;;;;;;;8.17;2.70;;;8.80;99.90;;;;;;4994792;28;20248;-84
2021/10/17 04:20:19;;;;;;;5.53;2.03;;;8.80;99.90;;;;;;4994774;28;20208;-84
2021/10/17 04:22:44;;;;;;;4.27;2.60;;;8.70;99.90;;;;;;4994255;28;20284;-85
2021/10/17 04:25:10;;;;;;;8.03;2.37;;;8.70;99.90;;;;;;4994837;28;20802;-85
2021/10/17 04:27:37;;;;;;;9.10;2.90;;;8.60;99.90;;;;;;4994691;28;20183;-85
2021/10/17 04:30:05;;;;;;;5.53;1.80;;;8.50;99.90;;;;;;4994712;28;20182;-85
2021/10/17 04:32:31;;;;;;;6.53;2.60;;;8.40;99.90;;;;;;4994640;28;20421;-84
2021/10/17 04:34:57;;;;;;;7.37;2.90;;;8.40;99.90;;;;;;4994641;28;20430;-84
2021/10/17 04:37:22;;;;;;;8.30;3.43;;;8.40;99.90;;;;;;4994144;28;20481;-84
2021/10/17 04:39:48;;;;;;;8.20;2.50;;;8.40;99.90;;;;;;4994448;28;20425;-84
2021/10/17 04:42:13;;;;;;;5.40;2.63;;;8.50;99.90;;;;;;4994500;28;20177;-84
2021/10/17 04:44:39;;;;;;;4.63;1.70;;;8.60;99.90;;;;;;4994405;28;20171;-84
2021/10/17 04:47:05;;;;;;;6.23;2.80;;;8.40;99.90;;;;;;4994479;28;20180;-84
2021/10/17 04:49:31;;;;;;;10.87;4.13;;;8.40;99.90;;;;;;4976921;28;20186;-84
2021/10/17 04:51:56;;;;;;;6.50;3.00;;;8.40;99.90;;;;;;4993873;28;20282;-84
2021/10/17 04:54:22;;;;;;;8.60;2.90;;;8.40;99.90;;;;;;4976872;28;20426;-84
2021/10/17 04:56:48;;;;;;;5.40;2.97;;;8.40;99.90;;;;;;4994073;28;20628;-84
2021/10/17 04:59:17;;;;;;;5.77;2.63;;;8.60;99.90;;;;;;4993251;28;20182;-84
2021/10/17 05:01:42;;;;;;;8.83;3.20;;;8.60;99.90;;;;;;4994184;28;20420;-84
2021/10/17 05:04:08;;;;;;;5.00;2.80;;;8.70;99.90;;;;;;4994194;28;20424;-85
2021/10/17 05:06:34;;;;;;;9.30;3.60;;;8.60;99.90;;;;;;4993711;28;20256;-84
2021/10/17 05:08:59;;;;;;;9.30;2.70;;;8.70;99.90;;;;;;4994073;28;20229;-84
2021/10/17 05:11:25;;;;;;;5.13;2.60;;;8.70;99.90;;;;;;4993953;28;20193;-84
2021/10/17 05:13:54;;;;;;;5.73;2.57;;;8.70;99.90;;;;;;4994065;28;20178;-85
2021/10/17 05:16:19;;;;;;;5.10;2.47;;;8.80;99.90;;;;;;4993814;28;20468;-84
2021/10/17 05:18:45;;;;;;;9.07;4.30;;;8.80;99.90;;;;;;4993889;28;20432;-85
2021/10/17 05:21:11;;;;;;;7.87;2.87;;;8.80;99.90;;;;;;4975901;28;20255;-85
2021/10/17 05:23:36;;;;;;;13.03;3.77;;;8.80;99.90;;;;;;4976532;28;20182;-84
2021/10/17 05:26:04;;;;;;;9.03;3.60;;;8.80;99.90;;;;;;4976413;28;20236;-84
2021/10/17 05:28:31;;;;;;;9.60;2.60;;;8.90;99.90;;;;;;4993782;28;20416;-83
2021/10/17 05:31:00;;;;;;;8.20;3.07;;;8.80;99.90;;;;;;4993728;28;20430;-84
2021/10/17 05:33:29;;;;;;;6.73;3.40;;;8.80;99.90;;;;;;4993753;28;20442;-84
2021/10/17 05:35:55;;;;;;;6.47;2.70;;;8.80;99.90;;;;;;4993159;28;20817;-84
2021/10/17 05:38:20;;;;;;;13.93;3.83;;;8.90;99.90;;;;;;4993639;28;20434;-83
2021/10/17 05:40:52;;;;;;;6.17;2.77;;;8.80;99.90;;;;;;4993621;28;20181;-84
2021/10/17 05:43:17;;;;;;;7.40;3.50;;;8.90;99.90;;;;;;4993594;28;20524;-83
2021/10/17 05:45:43;;;;;;;9.23;2.20;;;9.00;99.90;;;;;;4993579;28;20472;-83
2021/10/17 05:48:09;;;;;;;4.33;2.23;;;8.90;99.90;;;;;;4976127;28;20185;-84
2021/10/17 05:50:34;;;;;;;7.00;3.33;;;8.90;99.90;;;;;;4993150;28;20538;-84
2021/10/17 05:53:00;;;;;;;8.70;3.53;;;8.90;99.90;;;;;;4976292;28;20224;-85
2021/10/17 05:55:26;;;;;;;6.80;2.80;;;8.90;99.90;;;;;;4975999;28;20286;-84
2021/10/17 05:57:51;;;;;;;6.47;3.13;;;8.90;99.90;;;;;;4975955;28;20480;-83
2021/10/17 06:00:17;;;;;;;9.43;3.33;;;9.00;99.90;;;;;;4975731;28;20249;-83
2021/10/17 06:02:42;;;;;;;8.83;3.10;;;8.90;99.90;;;;;;4976038;28;20273;-83
2021/10/17 06:05:08;;;;;;;6.87;4.33;;;8.90;99.90;;;;;;4993355;28;20176;-83
2021/10/17 06:07:35;;;;;;;6.57;3.53;;;9.00;99.90;;;;;;4992940;28;20183;-83
2021/10/17 06:10:01;;;;;;;6.90;2.83;;;9.00;99.90;;;;;;4994383;28;20498;-83
2021/10/17 06:12:28;;;;;;;8.83;2.83;;;9.00;99.90;;;;;;4979811;28;20504;-83
2021/10/17 06:14:53;;;;;;;7.47;3.93;;;9.00;99.90;;;;;;4997214;28;20421;-83
2021/10/17 06:17:19;;;;;;;8.90;3.23;;;9.00;99.90;;;;;;4997074;28;20479;-83
2021/10/17 06:19:48;;;;;;;9.07;3.37;;;9.00;99.90;;;;;;4979649;28;20206;-83
2021/10/17 06:22:13;;;;;;;5.80;3.33;;;9.10;99.90;;;;;;4988006;28;20469;-83
2021/10/17 06:24:42;;;;;;;5.73;2.53;;;9.10;99.90;;;;;;5016542;28;20467;-84
2021/10/17 06:27:10;;;;;;;6.43;2.67;;;9.20;99.90;;;;;;4998790;28;20174;-83
2021/10/17 06:29:36;;;;;;;8.67;3.60;;;8.90;99.90;;;;;;5016512;28;20497;-83
2021/10/17 06:32:02;;;;;;;7.70;3.47;;;9.10;99.90;;;;;;4998909;28;20831;-83
2021/10/17 06:34:27;;;;;;;7.60;3.57;;;9.20;99.90;;;;;;4998786;28;20175;-83
2021/10/17 06:36:53;;;;;;;7.87;2.67;;;9.20;99.90;;;;;;5015740;28;20469;-83
2021/10/17 06:39:19;;;;;;;13.47;4.40;;;9.20;99.90;;;;;;5016188;28;20175;-83
2021/10/17 06:41:44;;;;;;;6.80;3.17;;;9.20;99.90;;;;;;5016307;28;20178;-83
2021/10/17 06:44:10;;;;;;;7.00;3.90;;;9.20;99.90;;;;;;4998666;28;20301;-83
2021/10/17 06:46:35;;;;;;;11.67;3.60;;;9.10;99.90;;;;;;5016202;28;20527;-83
2021/10/17 06:49:04;;;;;;;11.50;4.67;;;9.30;99.90;;;;;;5016206;28;20172;-84
2021/10/17 06:51:29;;;;;;;7.83;3.13;;;9.20;99.90;;;;;;5015798;28;20664;-84
2021/10/17 06:53:55;;;;;;;6.77;4.20;;;9.30;99.90;;;;;;5016043;28;20408;-84
2021/10/17 06:56:20;;;;;;;14.50;4.07;;;9.30;99.90;;;;;;5015965;28;20223;-85
2021/10/17 06:58:46;;;;;;;18.53;4.33;;;9.40;99.90;;;;;;5016045;28;20658;-84
2021/10/17 07:01:12;;;;;;;9.83;4.00;;;9.30;99.90;;;;;;5016016;28;20181;-85
2021/10/17 07:03:38;;;;;;;7.83;3.50;;;9.40;99.90;;;;;;5015895;28;20178;-85
2021/10/17 07:06:06;;;;;;;7.07;4.03;;;9.40;99.90;;;;;;5015569;28;20421;-85
2021/10/17 07:08:31;;;;;;;8.83;3.70;;;9.40;99.90;;;;;;4998296;28;20211;-85
2021/10/17 07:10:57;;;;;;;6.87;4.50;;;9.40;99.90;;;;;;5015806;28;20505;-84
2021/10/17 07:13:23;;;;;;;8.67;3.37;;;9.40;99.90;;;;;;4998322;28;20258;-84
2021/10/17 07:15:48;;;;;;;14.33;5.00;;;9.40;99.90;;;;;;5015617;28;20511;-84
2021/10/17 07:18:19;;;;;;;7.93;5.40;;;9.50;99.90;;;;;;5015670;28;20183;-84
2021/10/17 07:20:45;;;;;;;11.00;4.00;;;9.40;99.90;;;;;;5014797;28;20175;-84
2021/10/17 07:23:10;;;;;;;6.70;3.70;;;9.50;99.90;;;;;;4997580;28;20557;-84
2021/10/17 07:25:36;;;;;;;12.93;4.13;;;9.50;99.90;;;;;;4978510;28;20182;-84
2021/10/17 07:28:02;;;;;;;15.43;6.03;;;9.50;99.90;;;;;;4995972;28;20185;-84
2021/10/17 07:30:28;;;;;;;9.17;4.40;;;9.60;99.90;;;;;;4995829;28;20173;-84
2021/10/17 07:32:54;;;;;;;12.33;4.57;;;9.80;99.90;;;;;;4978146;28;20431;-83
2021/10/17 07:35:19;;;;;;;12.97;5.50;;;9.70;99.90;;;;;;4995411;28;20230;-85
2021/10/17 07:37:45;;;;;;;8.83;4.17;;;9.80;99.90;;;;;;4995720;28;20218;-85
2021/10/17 07:40:11;;;;;;;12.07;4.90;;;9.80;99.90;;;;;;4995659;28;20177;-84
2021/10/17 07:42:37;;;;;;;8.00;3.87;;;9.80;99.90;;;;;;4995678;28;20538;-84
2021/10/17 07:45:06;;;;;;;9.47;3.90;;;9.70;99.90;;;;;;4995518;28;20425;-85
2021/10/17 07:47:34;;;;;;;16.13;4.67;;;10.20;99.90;;;;;;4995525;28;20175;-85
2021/10/17 07:50:00;;;;;;;8.70;4.57;;;9.70;99.90;;;;;;4995485;28;20422;-84
2021/10/17 07:52:26;;;;;;;8.93;3.80;;;9.70;99.90;;;;;;4995125;28;20413;-84
2021/10/17 07:54:51;;;;;;;13.30;4.57;;;9.70;99.90;;;;;;4995391;28;20172;-84
2021/10/17 07:57:17;;;;;;;12.80;4.83;;;9.70;99.90;;;;;;4995329;28;20336;-85
2021/10/17 07:59:43;;;;;;;10.73;4.10;;;9.60;99.90;;;;;;4995308;28;20172;-85
2021/10/17 08:02:08;;;;;;;11.47;4.80;;;9.70;99.90;;;;;;4995185;28;20183;-85
2021/10/17 08:04:37;;;;;;;8.97;4.80;;;9.70;99.90;;;;;;4995051;28;20191;-84
2021/10/17 08:07:03;;;;;;;7.63;4.30;;;9.90;99.90;;;;;;4994803;28;20268;-85
2021/10/17 08:09:30;;;;;;;8.27;4.53;;;9.60;99.90;;;;;;4995002;28;20501;-84
2021/10/17 08:11:55;;;;;;;9.60;4.50;;;9.70;99.90;;;;;;4994958;28;20426;-85
2021/10/17 08:14:21;;;;;;;9.80;4.83;;;9.70;99.90;;;;;;4994917;28;20807;-84
2021/10/17 08:16:47;;;;;;;7.83;3.83;;;9.80;99.90;;;;;;4994860;28;20250;-83
2021/10/17 08:19:13;;;;;;;11.30;5.00;;;9.80;99.90;;;;;;4994965;28;20187;-85
2021/10/17 08:21:38;;;;;;;12.33;4.60;;;9.80;99.90;;;;;;4999102;28;20961;-85
2021/10/17 08:24:04;;;;;;;12.53;5.80;;;9.80;99.90;;;;;;4996841;28;20175;-84
2021/10/17 08:26:30;;;;;;;8.03;3.50;;;10.00;99.90;;;;;;4996745;28;20568;-84
2021/10/17 08:28:55;;;;;;;12.77;4.63;;;9.80;99.90;;;;;;5014393;28;20220;-84
2021/10/17 08:31:21;;;;;;;10.03;4.30;;;9.80;99.90;;;;;;5014228;28;20175;-84
2021/10/17 08:33:47;;;;;;;8.03;5.80;;;9.80;99.90;;;;;;5014032;28;20655;-84
2021/10/17 08:36:12;;;;;;;8.87;5.97;;;9.80;99.90;;;;;;4996207;28;20688;-85
2021/10/17 08:38:41;;;;;;;11.80;5.60;;;9.90;99.90;;;;;;5014185;28;20310;-85
2021/10/17 08:41:06;;;;;;;14.10;5.67;;;9.80;99.90;;;;;;5014051;28;20164;-86
2021/10/17 08:43:32;;;;;;;11.33;5.40;;;10.00;99.90;;;;;;5014048;28;20432;-86
2021/10/17 08:45:59;;;;;;;10.43;5.47;;;10.00;99.90;;;;;;5014193;28;20171;-86
2021/10/17 08:48:30;;;;;;;10.23;5.00;;;10.10;99.90;;;;;;5014337;28;20413;-83
2021/10/17 08:51:00;;;;;;;9.03;5.00;;;10.10;99.90;;;;;;5013679;28;20422;-83
2021/10/17 08:53:27;;;;;;;11.47;4.93;;;10.30;99.90;;;;;;5013779;28;20500;-83
2021/10/17 08:55:53;;;;;;;11.27;4.90;;;10.30;99.90;;;;;;5013771;28;20498;-83
2021/10/17 08:58:18;;;;;;;12.60;5.10;;;10.20;99.90;;;;;;5013863;28;20501;-83
2021/10/17 09:00:44;;;;;;;12.87;6.07;;;10.10;99.90;;;;;;4996293;28;20264;-83
2021/10/17 09:03:10;;;;;;;9.00;5.23;;;9.80;99.90;;;;;;5013755;28;20181;-83
2021/10/17 09:05:39;;;;;;;12.43;4.93;;;9.80;99.90;;;;;;5013300;28;20166;-83
2021/10/17 09:08:08;;;;;;;14.63;6.50;;;9.70;99.90;;;;;;5013690;28;20411;-83
2021/10/17 09:10:35;;;;;;;12.73;5.73;;;9.70;99.90;;;;;;5013741;28;20422;-83
2021/10/17 09:13:12;;;;;;;13.47;7.00;;;9.70;99.90;;;;;;5013660;28;20413;-83
2021/10/17 09:15:39;;;;;;;11.63;6.40;;;9.60;99.90;;;;;;5013691;28;20799;-82
2021/10/17 09:18:20;;;;;;;12.90;6.50;;;10.40;99.90;;;;;;5013583;28;20476;-82
2021/10/17 09:20:49;;;;;;;12.67;6.37;;;9.80;99.90;;;;;;5013169;28;20416;-82
2021/10/17 09:23:38;;;;;;;16.10;6.73;;;9.90;99.90;;;;;;5013318;28;20476;-82
2021/10/17 09:26:12;;;;;;;9.23;6.07;;;9.90;99.90;;;;;;5013434;28;20407;-83
2021/10/17 09:28:41;;;;;;;9.83;6.70;;;10.10;99.90;;;;;;5013485;28;20410;-82
2021/10/17 09:31:07;;;;;;;14.60;6.97;;;10.20;99.90;;;;;;4995787;28;20995;-83
2021/10/17 09:33:40;;;;;;;16.43;8.30;;;10.20;99.90;;;;;;5013338;28;20448;-83
2021/10/17 09:36:16;;;;;;;10.97;6.70;;;10.40;99.90;;;;;;5012888;28;20774;-83
2021/10/17 09:38:43;;;;;;;13.03;7.30;;;10.40;99.90;;;;;;5013395;28;20548;-83
2021/10/17 09:41:22;;;;;;;13.50;5.77;;;10.40;99.90;;;;;;5013251;28;20419;-83
2021/10/17 09:43:55;;;;;;;10.43;5.10;;;10.30;99.90;;;;;;4995856;28;21030;-82
2021/10/17 09:46:22;;;;;;;12.40;6.43;;;10.40;99.90;;;;;;5019538;28;20410;-83
2021/10/17 09:48:48;;;;;;;13.07;5.50;;;10.40;99.90;;;;;;5019682;28;20435;-83
2021/10/17 09:51:22;;;;;;;6.63;4.37;;;10.30;99.90;;;;;;5019353;28;20808;-82
2021/10/17 09:53:58;;;;;;;13.70;6.77;;;10.30;99.90;;;;;;5019634;28;20582;-82
2021/10/17 09:56:40;;;;;;;13.10;6.13;;;10.40;99.90;;;;;;5019569;28;20515;-82
2021/10/17 09:59:11;;;;;;;15.43;6.57;;;10.40;99.90;;;;;;5019724;28;20423;-83
2021/10/17 10:01:39;;;;;;;11.43;5.60;;;10.50;99.90;;;;;;5019556;28;20415;-82
2021/10/17 10:04:07;;;;;;;14.20;6.27;;;10.60;99.90;;;;;;5001911;28;20944;-83
2021/10/17 10:06:34;;;;;;;13.93;6.13;;;10.70;99.90;;;;;;5001592;28;20418;-83
2021/10/17 10:09:10;;;;;;;10.60;6.47;;;10.70;99.90;;;;;;5019598;28;20794;-82
2021/10/17 10:11:38;;;;;;;12.47;5.83;;;10.70;99.90;;;;;;5019575;28;20410;-83
2021/10/17 10:14:06;;;;;;;11.53;6.13;;;10.70;99.90;;;;;;5001794;28;20422;-83
2021/10/17 10:16:33;;;;;;;12.47;6.43;;;10.60;99.90;;;;;;5019439;28;20477;-83
2021/10/17 10:19:01;;;;;;;10.07;5.97;;;10.50;99.90;;;;;;5019461;28;20470;-83
2021/10/17 10:21:28;;;;;;;9.80;5.53;;;10.50;99.90;;;;;;5018889;28;20461;-83
2021/10/17 10:23:55;;;;;;;12.60;6.90;;;10.70;99.90;;;;;;5019302;28;20415;-83
2021/10/17 10:26:23;;;;;;;13.93;6.77;;;10.60;99.90;;;;;;5019367;28;20496;-83
2021/10/17 10:28:50;;;;;;;10.10;4.93;;;10.70;99.90;;;;;;5019376;28;20423;-83
2021/10/17 10:31:42;;;;;;;11.40;6.00;;;10.80;99.90;;;;;;5019385;28;20493;-83
2021/10/17 10:34:09;;;;;;;13.30;6.80;;;10.90;99.90;;;;;;5006536;28;20472;-83
2021/10/17 10:36:42;;;;;;;14.10;6.87;;;11.00;99.90;;;;;;5018907;28;20470;-83
2021/10/17 10:39:18;;;;;;;10.60;5.80;;;11.00;99.90;;;;;;5019284;28;20936;-83
2021/10/17 10:41:46;;;;;;;14.50;7.87;;;11.10;99.90;;;;;;5001590;28;20419;-83
2021/10/17 10:44:16;;;;;;;13.50;6.37;;;11.10;99.90;;;;;;5019289;28;20421;-83
2021/10/17 10:46:45;;;;;;;11.70;5.53;;;11.20;99.90;;;;;;5019116;28;20415;-82
2021/10/17 10:49:11;;;;;;;8.10;5.17;;;11.30;99.90;;;;;;5019193;28;20999;-83
2021/10/17 10:51:39;;;;;;;13.60;5.80;;;11.50;99.90;;;;;;5001238;28;20459;-83
2021/10/17 10:54:23;;;;;;;9.77;5.43;;;11.50;99.90;;;;;;5019135;28;20416;-83
2021/10/17 10:56:50;;;;;;;14.13;5.13;;;11.90;99.90;;;;;;5016946;28;20951;-82
2021/10/17 10:59:18;;;;;;;10.27;4.60;;;11.20;99.90;;;;;;5016052;28;20447;-83
2021/10/17 11:02:02;;;;;;;10.40;5.33;;;11.40;99.90;;;;;;4998359;28;20868;-83
2021/10/17 11:04:44;;;;;;;8.60;4.87;;;11.50;99.90;;;;;;4998412;28;20423;-83
2021/10/17 11:07:17;;;;;;;8.90;5.97;;;11.50;99.90;;;;;;4998229;28;20404;-83
2021/10/17 11:09:42;;;;;;;7.80;4.60;;;11.60;99.90;;;;;;5015874;28;20425;-83
2021/10/17 11:12:08;;;;;;;11.83;4.20;;;11.70;99.90;;;;;;5015443;28;20413;-83
2021/10/17 11:14:34;;;;;;;11.57;5.37;;;11.70;99.90;;;;;;5015778;28;20269;-83
2021/10/17 11:17:06;;;;;;;8.13;5.40;;;11.80;99.90;;;;;;4997994;28;20925;-83
2021/10/17 11:19:33;;;;;;;13.53;5.30;;;11.60;99.90;;;;;;5015439;28;20205;-83
2021/10/17 11:22:02;;;;;;;5.77;4.63;;;11.70;99.90;;;;;;5007703;28;20470;-83
2021/10/17 11:24:31;;;;;;;9.80;4.97;;;11.90;99.90;;;;;;4995860;28;20501;-82
2021/10/17 11:27:14;;;;;;;9.57;5.07;;;11.70;99.90;;;;;;4978301;28;20436;-83
2021/10/17 11:29:42;;;;;;;13.03;5.67;;;11.90;99.90;;;;;;4995692;28;20774;-83
2021/10/17 11:32:10;;;;;;;10.73;4.80;;;11.80;99.90;;;;;;4995807;28;20429;-83
2021/10/17 11:34:35;;;;;;;8.80;4.60;;;12.00;99.90;;;;;;4995283;28;20968;-83
2021/10/17 11:37:22;;;;;;;8.60;6.10;;;12.00;99.90;;;;;;4978168;28;20480;-83
2021/10/17 11:40:09;;;;;;;7.83;4.60;;;11.60;99.90;;;;;;4978192;28;20233;-83
2021/10/17 11:42:48;;;;;;;9.57;4.73;;;11.90;99.90;;;;;;4995611;28;20422;-83
2021/10/17 11:45:22;;;;;;;14.50;4.70;;;11.90;99.90;;;;;;4995630;28;20420;-83
2021/10/17 11:47:49;;;;;;;8.20;5.60;;;11.90;99.90;;;;;;4995644;28;20402;-83
2021/10/17 11:50:38;;;;;;;8.77;4.23;;;11.80;99.90;;;;;;4977715;28;20415;-83
2021/10/17 11:53:17;;;;;;;12.17;5.03;;;11.90;99.90;;;;;;4995453;28;20505;-83
2021/10/17 11:55:52;;;;;;;11.07;5.20;;;11.90;99.90;;;;;;4977867;28;20418;-83
2021/10/17 11:58:22;;;;;;;14.10;4.57;;;12.00;99.90;;;;;;4995194;28;20513;-84
2021/10/17 12:01:07;;;;;;;11.00;6.20;;;12.00;99.90;;;;;;4995203;28;20522;-83
2021/10/17 12:03:33;;;;;;;8.07;4.63;;;12.00;99.90;;;;;;4995075;28;20814;-83
2021/10/17 12:06:00;;;;;;;9.20;3.73;;;12.20;99.90;;;;;;4994816;28;20464;-83
2021/10/17 12:08:35;;;;;;;8.53;4.27;;;;;;;;;;4994373;28;20190;-83
2021/10/17 12:11:02;;;;;;;9.03;4.90;;;12.00;99.90;;;;;;4995103;28;20406;-82
2021/10/17 12:13:29;;;;;;;8.30;4.30;;;11.90;99.90;;;;;;4995086;28;20406;-83
2021/10/17 12:16:05;;;;;;;8.13;5.40;;;11.90;99.90;;;;;;4994928;28;20416;-83
2021/10/17 12:18:31;;;;;;;6.87;4.03;;;12.00;99.90;;;;;;4977388;28;20444;-83
2021/10/17 12:20:58;;;;;;;9.43;4.63;;;11.90;99.90;;;;;;4994443;28;20499;-83
2021/10/17 12:23:23;;;;;;;11.07;5.17;;;12.00;99.90;;;;;;4994643;28;20465;-82
2021/10/17 12:25:49;;;;;;;11.37;5.67;;;11.90;99.90;;;;;;4977480;28;20501;-83
2021/10/17 12:28:19;;;;;;;10.00;4.80;;;12.00;99.90;;;;;;4994692;28;20179;-83
2021/10/17 12:30:49;;;;;;;6.77;4.97;;;12.00;99.90;;;;;;4994709;28;20178;-83
2021/10/17 12:33:36;;;;;;;10.83;5.03;;;12.40;99.90;;;;;;4977293;28;20468;-83
2021/10/17 12:36:03;;;;;;;10.23;4.47;;;12.10;99.90;;;;;;4994118;28;20418;-84
2021/10/17 12:38:36;;;;;;;13.40;6.10;;;12.00;99.90;;;;;;4994538;28;20423;-83
2021/10/17 12:41:07;;;;;;;8.20;4.20;;;11.90;99.90;;;;;;4994239;28;20415;-83
2021/10/17 12:43:37;;;;;;;12.60;4.70;;;12.00;99.90;;;;;;4976967;28;20450;-83
2021/10/17 12:46:16;;;;;;;7.40;4.40;;;12.00;99.90;;;;;;4977051;28;20449;-83
2021/10/17 12:48:47;;;;;;;8.93;5.07;;;11.90;99.90;;;;;;4994489;28;20921;-82
2021/10/17 12:51:33;;;;;;;9.10;6.10;;;11.80;99.90;;;;;;4993805;28;20478;-83
2021/10/17 12:54:28;;;;;;;12.47;5.20;;;11.90;99.90;;;;;;4994270;28;20852;-83
2021/10/17 12:56:56;;;;;;;12.00;5.90;;;11.80;99.90;;;;;;4994212;28;20511;-83